sensor_id;sensor_type;location;lat;lon;timestamp;temperature;humidity
3912;DHT22;1971;51.778;10.330;2024-03-29T00:01:32;4.50;99.90
3912;DHT22;1971;51.778;10.330;2024-03-29T00:03:59;5.00;99.90
3912;DHT22;1971;51.778;10.330;2024-03-29T00:06:25;4.90;99.90
3912;DHT22;1971;51.778;10.330;2024-03-29T00:08:52;5.00;99.90
3912;DHT22;1971;51.778;10.330;2024-03-29T00:11:18;4.70;99.90
3912;DHT22;1971;51.778;10.330;2024-03-29T00:13:47;5.00;99.90
3912;DHT22;1971;51.778;10.330;2024-03-29T00:16:13;4.70;99.90
3912;DHT22;1971;51.778;10.330;2024-03-29T00:18:40;4.80;99.90
3912;DHT22;1971;51.778;10.330;2024-03-29T00:21:07;4.80;99.90
3912;DHT22;1971;51.778;10.330;2024-03-29T00:23:33;4.90;99.90
3912;DHT22;1971;51.778;10.330;2024-03-29T00:26:00;4.80;99.90
3912;DHT22;1971;51.778;10.330;2024-03-29T00:28:26;4.70;99.90
3912;DHT22;1971;51.778;10.330;2024-03-29T00:30:55;4.70;99.90
3912;DHT22;1971;51.778;10.330;2024-03-29T00:33:21;5.00;99.90
3912;DHT22;1971;51.778;10.330;2024-03-29T00:35:48;4.70;99.90
3912;DHT22;1971;51.778;10.330;2024-03-29T00:38:14;4.60;99.90
3912;DHT22;1971;51.778;10.330;2024-03-29T00:40:41;4.70;99.90
3912;DHT22;1971;51.778;10.330;2024-03-29T00:43:07;5.00;99.90
3912;DHT22;1971;51.778;10.330;2024-03-29T00:45:34;4.80;99.90
3912;DHT22;1971;51.778;10.330;2024-03-29T00:48:03;4.90;99.90
3912;DHT22;1971;51.778;10.330;2024-03-29T00:50:30;5.00;99.90
3912;DHT22;1971;51.778;10.330;2024-03-29T00:52:57;4.90;99.90
3912;DHT22;1971;51.778;10.330;2024-03-29T00:55:23;4.60;99.90
3912;DHT22;1971;51.778;10.330;2024-03-29T00:57:50;4.80;99.90
3912;DHT22;1971;51.778;10.330;2024-03-29T01:00:16;4.70;99.90
3912;DHT22;1971;51.778;10.330;2024-03-29T01:02:42;5.00;99.90
3912;DHT22;1971;51.778;10.330;2024-03-29T01:05:11;4.60;99.90
3912;DHT22;1971;51.778;10.330;2024-03-29T01:07:40;4.40;99.90
3912;DHT22;1971;51.778;10.330;2024-03-29T01:10:07;4.70;99.90
3912;DHT22;1971;51.778;10.330;2024-03-29T01:12:34;4.50;99.90
3912;DHT22;1971;51.778;10.330;2024-03-29T01:15:01;4.60;99.90
3912;DHT22;1971;51.778;10.330;2024-03-29T01:17:28;4.60;99.90
3912;DHT22;1971;51.778;10.330;2024-03-29T01:19:54;4.40;99.90
3912;DHT22;1971;51.778;10.330;2024-03-29T01:22:23;4.60;99.90
3912;DHT22;1971;51.778;10.330;2024-03-29T01:24:49;4.60;99.90
3912;DHT22;1971;51.778;10.330;2024-03-29T01:27:16;4.80;99.90
3912;DHT22;1971;51.778;10.330;2024-03-29T01:29:42;4.70;99.90
3912;DHT22;1971;51.778;10.330;2024-03-29T01:32:08;4.40;99.90
3912;DHT22;1971;51.778;10.330;2024-03-29T01:34:35;4.50;99.90
3912;DHT22;1971;51.778;10.330;2024-03-29T01:37:01;4.40;99.90
3912;DHT22;1971;51.778;10.330;2024-03-29T01:39:31;4.90;99.90
3912;DHT22;1971;51.778;10.330;2024-03-29T01:41:57;4.80;99.90
3912;DHT22;1971;51.778;10.330;2024-03-29T01:44:23;4.90;99.90
3912;DHT22;1971;51.778;10.330;2024-03-29T01:46:50;4.80;99.90
3912;DHT22;1971;51.778;10.330;2024-03-29T01:49:17;4.90;99.90
3912;DHT22;1971;51.778;10.330;2024-03-29T01:51:44;4.70;99.90
3912;DHT22;1971;51.778;10.330;2024-03-29T01:54:11;5.00;99.90
3912;DHT22;1971;51.778;10.330;2024-03-29T01:56:41;4.80;99.90
3912;DHT22;1971;51.778;10.330;2024-03-29T01:59:13;4.70;99.90
3912;DHT22;1971;51.778;10.330;2024-03-29T02:01:40;4.50;99.90
3912;DHT22;1971;51.778;10.330;2024-03-29T02:04:08;4.80;99.90
3912;DHT22;1971;51.778;10.330;2024-03-29T02:06:35;4.80;99.90
3912;DHT22;1971;51.778;10.330;2024-03-29T02:09:01;4.80;99.90
3912;DHT22;1971;51.778;10.330;2024-03-29T02:11:27;4.90;99.90
3912;DHT22;1971;51.778;10.330;2024-03-29T02:13:57;4.80;99.90
3912;DHT22;1971;51.778;10.330;2024-03-29T02:16:24;4.90;99.90
3912;DHT22;1971;51.778;10.330;2024-03-29T02:18:50;4.90;99.90
3912;DHT22;1971;51.778;10.330;2024-03-29T02:21:16;4.70;99.90
3912;DHT22;1971;51.778;10.330;2024-03-29T02:23:44;4.80;99.90
3912;DHT22;1971;51.778;10.330;2024-03-29T02:26:13;4.90;99.90
3912;DHT22;1971;51.778;10.330;2024-03-29T02:28:39;4.70;99.90
3912;DHT22;1971;51.778;10.330;2024-03-29T02:31:05;4.80;99.90
3912;DHT22;1971;51.778;10.330;2024-03-29T02:33:32;4.90;99.90
3912;DHT22;1971;51.778;10.330;2024-03-29T02:35:59;4.90;99.90
3912;DHT22;1971;51.778;10.330;2024-03-29T02:38:26;4.80;99.90
3912;DHT22;1971;51.778;10.330;2024-03-29T02:40:52;4.90;99.90
3912;DHT22;1971;51.778;10.330;2024-03-29T02:43:21;4.90;99.90
3912;DHT22;1971;51.778;10.330;2024-03-29T02:45:47;4.80;99.90
3912;DHT22;1971;51.778;10.330;2024-03-29T02:48:14;5.00;99.90
3912;DHT22;1971;51.778;10.330;2024-03-29T02:50:40;4.70;99.90
3912;DHT22;1971;51.778;10.330;2024-03-29T02:53:06;4.90;99.90
3912;DHT22;1971;51.778;10.330;2024-03-29T02:55:32;4.70;99.90
3912;DHT22;1971;51.778;10.330;2024-03-29T02:57:59;4.70;99.90
3912;DHT22;1971;51.778;10.330;2024-03-29T03:00:28;4.70;99.90
3912;DHT22;1971;51.778;10.330;2024-03-29T03:02:54;4.70;99.90
3912;DHT22;1971;51.778;10.330;2024-03-29T03:05:21;4.70;99.90
3912;DHT22;1971;51.778;10.330;2024-03-29T03:07:47;4.80;99.90
3912;DHT22;1971;51.778;10.330;2024-03-29T03:10:29;5.10;99.90
3912;DHT22;1971;51.778;10.330;2024-03-29T03:13:10;5.10;99.90
3912;DHT22;1971;51.778;10.330;2024-03-29T03:15:39;5.30;99.90
3912;DHT22;1971;51.778;10.330;2024-03-29T03:18:06;5.10;99.90
3912;DHT22;1971;51.778;10.330;2024-03-29T03:20:32;5.40;99.90
3912;DHT22;1971;51.778;10.330;2024-03-29T03:22:59;5.20;99.90
3912;DHT22;1971;51.778;10.330;2024-03-29T03:25:27;5.00;99.90
3912;DHT22;1971;51.778;10.330;2024-03-29T03:27:53;5.20;99.90
3912;DHT22;1971;51.778;10.330;2024-03-29T03:30:20;5.10;99.90
3912;DHT22;1971;51.778;10.330;2024-03-29T03:32:49;5.00;99.90
3912;DHT22;1971;51.778;10.330;2024-03-29T03:35:15;5.20;99.90
3912;DHT22;1971;51.778;10.330;2024-03-29T03:37:42;5.30;99.90
3912;DHT22;1971;51.778;10.330;2024-03-29T03:40:09;5.50;99.90
3912;DHT22;1971;51.778;10.330;2024-03-29T03:42:36;5.40;99.90
3912;DHT22;1971;51.778;10.330;2024-03-29T03:45:03;5.30;99.90
3912;DHT22;1971;51.778;10.330;2024-03-29T03:47:29;5.40;99.90
3912;DHT22;1971;51.778;10.330;2024-03-29T03:49:58;5.50;99.90
3912;DHT22;1971;51.778;10.330;2024-03-29T03:52:25;5.30;99.90
3912;DHT22;1971;51.778;10.330;2024-03-29T03:54:51;5.60;99.90
3912;DHT22;1971;51.778;10.330;2024-03-29T03:57:18;5.30;99.90
3912;DHT22;1971;51.778;10.330;2024-03-29T03:59:44;5.40;99.90
3912;DHT22;1971;51.778;10.330;2024-03-29T04:02:11;5.40;99.90
3912;DHT22;1971;51.778;10.330;2024-03-29T04:04:37;5.40;99.90
3912;DHT22;1971;51.778;10.330;2024-03-29T04:07:06;5.40;92.40
3912;DHT22;1971;51.778;10.330;2024-03-29T04:09:33;5.50;80.20
3912;DHT22;1971;51.778;10.330;2024-03-29T04:11:59;5.50;73.20
3912;DHT22;1971;51.778;10.330;2024-03-29T04:14:26;5.50;64.70
3912;DHT22;1971;51.778;10.330;2024-03-29T04:16:52;5.30;55.80
3912;DHT22;1971;51.778;10.330;2024-03-29T04:19:19;5.50;69.20
3912;DHT22;1971;51.778;10.330;2024-03-29T04:21:45;5.30;58.20
3912;DHT22;1971;51.778;10.330;2024-03-29T04:24:14;5.60;46.50
3912;DHT22;1971;51.778;10.330;2024-03-29T04:26:41;5.60;18.40
3912;DHT22;1971;51.778;10.330;2024-03-29T04:29:07;5.70;1.00
3912;DHT22;1971;51.778;10.330;2024-03-29T04:31:34;5.80;1.00
3912;DHT22;1971;51.778;10.330;2024-03-29T04:34:01;5.70;1.00
3912;DHT22;1971;51.778;10.330;2024-03-29T04:36:27;5.80;1.00
3912;DHT22;1971;51.778;10.330;2024-03-29T04:38:53;5.80;1.00
3912;DHT22;1971;51.778;10.330;2024-03-29T04:41:23;6.00;1.00
3912;DHT22;1971;51.778;10.330;2024-03-29T04:43:50;5.80;1.00
3912;DHT22;1971;51.778;10.330;2024-03-29T04:46:17;5.90;1.00
3912;DHT22;1971;51.778;10.330;2024-03-29T04:48:44;5.90;1.00
3912;DHT22;1971;51.778;10.330;2024-03-29T04:51:10;6.10;1.00
3912;DHT22;1971;51.778;10.330;2024-03-29T04:53:37;6.00;1.00
3912;DHT22;1971;51.778;10.330;2024-03-29T04:56:04;6.00;1.00
3912;DHT22;1971;51.778;10.330;2024-03-29T04:58:34;6.10;1.00
3912;DHT22;1971;51.778;10.330;2024-03-29T05:01:01;6.10;14.60
3912;DHT22;1971;51.778;10.330;2024-03-29T05:03:27;6.10;15.80
3912;DHT22;1971;51.778;10.330;2024-03-29T05:05:54;6.20;29.60
3912;DHT22;1971;51.778;10.330;2024-03-29T05:08:20;6.30;1.00
3912;DHT22;1971;51.778;10.330;2024-03-29T05:10:48;6.40;1.00
3912;DHT22;1971;51.778;10.330;2024-03-29T05:13:15;6.20;22.80
3912;DHT22;1971;51.778;10.330;2024-03-29T05:15:43;6.20;10.60
3912;DHT22;1971;51.778;10.330;2024-03-29T05:18:10;6.20;37.20
3912;DHT22;1971;51.778;10.330;2024-03-29T05:20:36;6.20;47.70
3912;DHT22;1971;51.778;10.330;2024-03-29T05:23:03;6.10;28.20
3912;DHT22;1971;51.778;10.330;2024-03-29T05:25:29;6.10;20.90
3912;DHT22;1971;51.778;10.330;2024-03-29T05:27:56;6.30;60.80
3912;DHT22;1971;51.778;10.330;2024-03-29T05:30:22;6.00;32.90
3912;DHT22;1971;51.778;10.330;2024-03-29T05:32:51;6.00;45.80
3912;DHT22;1971;51.778;10.330;2024-03-29T05:35:18;6.10;84.30
3912;DHT22;1971;51.778;10.330;2024-03-29T05:37:44;6.20;99.10
3912;DHT22;1971;51.778;10.330;2024-03-29T05:40:11;5.80;99.90
3912;DHT22;1971;51.778;10.330;2024-03-29T05:42:38;5.70;99.90
3912;DHT22;1971;51.778;10.330;2024-03-29T05:45:05;5.90;99.90
3912;DHT22;1971;51.778;10.330;2024-03-29T05:47:32;5.70;99.90
3912;DHT22;1971;51.778;10.330;2024-03-29T05:50:01;5.60;99.90
3912;DHT22;1971;51.778;10.330;2024-03-29T05:52:28;5.50;99.90
3912;DHT22;1971;51.778;10.330;2024-03-29T05:54:54;5.50;99.90
3912;DHT22;1971;51.778;10.330;2024-03-29T05:57:20;5.50;99.90
3912;DHT22;1971;51.778;10.330;2024-03-29T05:59:47;5.60;99.90
3912;DHT22;1971;51.778;10.330;2024-03-29T06:02:13;5.40;99.90
3912;DHT22;1971;51.778;10.330;2024-03-29T06:04:39;5.80;99.90
3912;DHT22;1971;51.778;10.330;2024-03-29T06:07:09;5.50;99.90
3912;DHT22;1971;51.778;10.330;2024-03-29T06:09:35;5.60;99.90
3912;DHT22;1971;51.778;10.330;2024-03-29T06:12:01;6.00;99.90
3912;DHT22;1971;51.778;10.330;2024-03-29T06:14:27;5.90;99.90
3912;DHT22;1971;51.778;10.330;2024-03-29T06:17:09;5.90;99.90
3912;DHT22;1971;51.778;10.330;2024-03-29T06:19:51;5.80;99.90
3912;DHT22;1971;51.778;10.330;2024-03-29T06:22:20;6.00;99.90
3912;DHT22;1971;51.778;10.330;2024-03-29T06:24:47;5.70;99.90
3912;DHT22;1971;51.778;10.330;2024-03-29T06:27:13;5.50;99.90
3912;DHT22;1971;51.778;10.330;2024-03-29T06:29:40;5.60;99.90
3912;DHT22;1971;51.778;10.330;2024-03-29T06:32:06;5.70;99.90
3912;DHT22;1971;51.778;10.330;2024-03-29T06:34:33;5.60;99.90
3912;DHT22;1971;51.778;10.330;2024-03-29T06:36:59;5.30;99.90
3912;DHT22;1971;51.778;10.330;2024-03-29T06:39:28;5.50;99.90
3912;DHT22;1971;51.778;10.330;2024-03-29T06:41:54;5.30;99.90
3912;DHT22;1971;51.778;10.330;2024-03-29T06:44:21;5.20;99.90
3912;DHT22;1971;51.778;10.330;2024-03-29T06:46:47;5.10;99.90
3912;DHT22;1971;51.778;10.330;2024-03-29T06:49:14;5.30;99.90
3912;DHT22;1971;51.778;10.330;2024-03-29T06:51:40;5.30;99.90
3912;DHT22;1971;51.778;10.330;2024-03-29T06:54:06;5.30;99.90
3912;DHT22;1971;51.778;10.330;2024-03-29T06:56:35;5.20;99.90
3912;DHT22;1971;51.778;10.330;2024-03-29T06:59:02;5.70;99.90
3912;DHT22;1971;51.778;10.330;2024-03-29T07:01:28;5.50;99.90
3912;DHT22;1971;51.778;10.330;2024-03-29T07:03:55;5.80;99.90
3912;DHT22;1971;51.778;10.330;2024-03-29T07:06:22;5.50;99.90
3912;DHT22;1971;51.778;10.330;2024-03-29T07:08:49;5.50;99.90
3912;DHT22;1971;51.778;10.330;2024-03-29T07:11:15;5.60;99.90
3912;DHT22;1971;51.778;10.330;2024-03-29T07:13:44;6.10;99.90
3912;DHT22;1971;51.778;10.330;2024-03-29T07:16:11;5.80;99.90
3912;DHT22;1971;51.778;10.330;2024-03-29T07:18:37;5.80;99.90
3912;DHT22;1971;51.778;10.330;2024-03-29T07:21:04;6.00;99.90
3912;DHT22;1971;51.778;10.330;2024-03-29T07:23:30;5.80;99.90
3912;DHT22;1971;51.778;10.330;2024-03-29T07:25:57;5.90;99.90
3912;DHT22;1971;51.778;10.330;2024-03-29T07:28:24;5.90;99.90
3912;DHT22;1971;51.778;10.330;2024-03-29T07:30:53;6.00;99.90
3912;DHT22;1971;51.778;10.330;2024-03-29T07:33:20;6.00;99.90
3912;DHT22;1971;51.778;10.330;2024-03-29T07:35:47;6.10;99.90
3912;DHT22;1971;51.778;10.330;2024-03-29T07:38:14;6.30;99.90
3912;DHT22;1971;51.778;10.330;2024-03-29T07:40:41;6.20;99.90
3912;DHT22;1971;51.778;10.330;2024-03-29T07:43:08;6.20;99.90
3912;DHT22;1971;51.778;10.330;2024-03-29T07:45:34;6.20;99.90
3912;DHT22;1971;51.778;10.330;2024-03-29T07:48:04;6.20;99.90
3912;DHT22;1971;51.778;10.330;2024-03-29T07:50:31;6.20;99.90
3912;DHT22;1971;51.778;10.330;2024-03-29T07:52:57;6.20;99.90
3912;DHT22;1971;51.778;10.330;2024-03-29T07:55:24;6.20;99.90
3912;DHT22;1971;51.778;10.330;2024-03-29T07:57:50;6.20;99.90
3912;DHT22;1971;51.778;10.330;2024-03-29T08:00:17;6.20;99.90
3912;DHT22;1971;51.778;10.330;2024-03-29T08:02:44;6.40;99.90
3912;DHT22;1971;51.778;10.330;2024-03-29T08:05:13;6.20;99.90
3912;DHT22;1971;51.778;10.330;2024-03-29T08:07:39;6.30;99.90
3912;DHT22;1971;51.778;10.330;2024-03-29T08:10:06;6.50;99.90
3912;DHT22;1971;51.778;10.330;2024-03-29T08:12:33;6.30;99.90
3912;DHT22;1971;51.778;10.330;2024-03-29T08:14:59;6.50;99.90
3912;DHT22;1971;51.778;10.330;2024-03-29T08:17:25;6.30;99.90
3912;DHT22;1971;51.778;10.330;2024-03-29T08:19:52;6.20;99.90
3912;DHT22;1971;51.778;10.330;2024-03-29T08:22:21;6.30;99.90
3912;DHT22;1971;51.778;10.330;2024-03-29T08:24:47;6.20;99.90
3912;DHT22;1971;51.778;10.330;2024-03-29T08:27:14;6.70;99.90
3912;DHT22;1971;51.778;10.330;2024-03-29T08:29:41;6.40;99.90
3912;DHT22;1971;51.778;10.330;2024-03-29T08:32:08;6.40;99.90
3912;DHT22;1971;51.778;10.330;2024-03-29T08:34:34;6.20;99.90
3912;DHT22;1971;51.778;10.330;2024-03-29T08:37:01;6.20;99.90
3912;DHT22;1971;51.778;10.330;2024-03-29T08:39:31;6.70;99.90
3912;DHT22;1971;51.778;10.330;2024-03-29T08:41:57;6.20;99.90
3912;DHT22;1971;51.778;10.330;2024-03-29T08:44:24;6.20;99.90
3912;DHT22;1971;51.778;10.330;2024-03-29T08:46:50;6.40;99.90
3912;DHT22;1971;51.778;10.330;2024-03-29T08:49:17;6.30;99.90
3912;DHT22;1971;51.778;10.330;2024-03-29T08:51:43;6.30;99.90
3912;DHT22;1971;51.778;10.330;2024-03-29T08:54:09;6.10;99.90
3912;DHT22;1971;51.778;10.330;2024-03-29T08:56:38;6.20;99.90
3912;DHT22;1971;51.778;10.330;2024-03-29T08:59:05;6.40;99.90
3912;DHT22;1971;51.778;10.330;2024-03-29T09:01:32;6.50;99.90
3912;DHT22;1971;51.778;10.330;2024-03-29T09:03:58;6.50;99.90
3912;DHT22;1971;51.778;10.330;2024-03-29T09:06:24;6.40;99.90
3912;DHT22;1971;51.778;10.330;2024-03-29T09:08:50;6.50;99.90
3912;DHT22;1971;51.778;10.330;2024-03-29T09:11:17;6.50;99.90
3912;DHT22;1971;51.778;10.330;2024-03-29T09:13:45;6.60;99.90
3912;DHT22;1971;51.778;10.330;2024-03-29T09:16:12;6.50;99.90
3912;DHT22;1971;51.778;10.330;2024-03-29T09:18:38;6.80;99.90
3912;DHT22;1971;51.778;10.330;2024-03-29T09:21:04;6.60;99.90
3912;DHT22;1971;51.778;10.330;2024-03-29T09:23:30;6.50;99.90
3912;DHT22;1971;51.778;10.330;2024-03-29T09:25:57;6.60;99.90
3912;DHT22;1971;51.778;10.330;2024-03-29T09:28:23;6.50;99.90
3912;DHT22;1971;51.778;10.330;2024-03-29T09:30:57;6.50;99.90
3912;DHT22;1971;51.778;10.330;2024-03-29T09:33:24;6.40;99.90
3912;DHT22;1971;51.778;10.330;2024-03-29T09:35:50;6.60;99.90
3912;DHT22;1971;51.778;10.330;2024-03-29T09:38:17;6.60;99.90
3912;DHT22;1971;51.778;10.330;2024-03-29T09:40:44;6.50;99.90
3912;DHT22;1971;51.778;10.330;2024-03-29T09:43:13;7.10;99.90
3912;DHT22;1971;51.778;10.330;2024-03-29T09:45:40;6.50;99.90
3912;DHT22;1971;51.778;10.330;2024-03-29T09:48:10;6.60;99.90
3912;DHT22;1971;51.778;10.330;2024-03-29T09:50:36;6.80;99.90
3912;DHT22;1971;51.778;10.330;2024-03-29T09:53:04;6.80;99.90
3912;DHT22;1971;51.778;10.330;2024-03-29T09:55:31;6.80;99.90
3912;DHT22;1971;51.778;10.330;2024-03-29T09:57:57;6.80;99.90
3912;DHT22;1971;51.778;10.330;2024-03-29T10:00:25;7.10;99.90
3912;DHT22;1971;51.778;10.330;2024-03-29T10:02:57;6.90;99.90
3912;DHT22;1971;51.778;10.330;2024-03-29T10:05:26;6.90;99.90
3912;DHT22;1971;51.778;10.330;2024-03-29T10:07:54;7.00;99.90
3912;DHT22;1971;51.778;10.330;2024-03-29T10:10:20;7.00;99.90
3912;DHT22;1971;51.778;10.330;2024-03-29T10:12:47;7.10;99.90
3912;DHT22;1971;51.778;10.330;2024-03-29T10:15:13;7.20;99.90
3912;DHT22;1971;51.778;10.330;2024-03-29T10:17:44;7.20;99.90
3912;DHT22;1971;51.778;10.330;2024-03-29T10:20:11;7.30;99.90
3912;DHT22;1971;51.778;10.330;2024-03-29T10:22:43;7.50;99.90
3912;DHT22;1971;51.778;10.330;2024-03-29T10:25:10;7.50;99.90
3912;DHT22;1971;51.778;10.330;2024-03-29T10:27:37;7.70;99.90
3912;DHT22;1971;51.778;10.330;2024-03-29T10:30:04;7.30;99.90
3912;DHT22;1971;51.778;10.330;2024-03-29T10:32:30;7.50;99.90
3912;DHT22;1971;51.778;10.330;2024-03-29T10:34:57;7.70;99.90
3912;DHT22;1971;51.778;10.330;2024-03-29T10:37:23;7.50;99.90
3912;DHT22;1971;51.778;10.330;2024-03-29T10:39:54;7.50;99.90
3912;DHT22;1971;51.778;10.330;2024-03-29T10:42:20;7.80;99.90
3912;DHT22;1971;51.778;10.330;2024-03-29T10:44:48;7.90;99.90
3912;DHT22;1971;51.778;10.330;2024-03-29T10:47:18;7.50;99.90
3912;DHT22;1971;51.778;10.330;2024-03-29T10:49:46;7.40;99.90
3912;DHT22;1971;51.778;10.330;2024-03-29T10:52:15;7.80;99.90
3912;DHT22;1971;51.778;10.330;2024-03-29T10:54:44;7.60;99.90
3912;DHT22;1971;51.778;10.330;2024-03-29T10:57:19;7.70;99.90
3912;DHT22;1971;51.778;10.330;2024-03-29T10:59:49;7.60;99.90
3912;DHT22;1971;51.778;10.330;2024-03-29T11:02:26;7.80;99.90
3912;DHT22;1971;51.778;10.330;2024-03-29T11:05:00;7.80;99.90
3912;DHT22;1971;51.778;10.330;2024-03-29T11:07:28;7.90;99.90
3912;DHT22;1971;51.778;10.330;2024-03-29T11:09:57;8.20;99.90
3912;DHT22;1971;51.778;10.330;2024-03-29T11:12:30;8.00;99.90
3912;DHT22;1971;51.778;10.330;2024-03-29T11:15:02;8.10;99.90
3912;DHT22;1971;51.778;10.330;2024-03-29T11:17:29;8.30;99.90
3912;DHT22;1971;51.778;10.330;2024-03-29T11:19:57;8.00;99.90
3912;DHT22;1971;51.778;10.330;2024-03-29T11:22:24;8.10;99.90
3912;DHT22;1971;51.778;10.330;2024-03-29T11:24:50;8.30;99.90
3912;DHT22;1971;51.778;10.330;2024-03-29T11:27:17;8.10;99.90
3912;DHT22;1971;51.778;10.330;2024-03-29T11:29:52;8.10;99.90
3912;DHT22;1971;51.778;10.330;2024-03-29T11:32:33;8.10;99.90
3912;DHT22;1971;51.778;10.330;2024-03-29T11:35:00;8.00;99.90
3912;DHT22;1971;51.778;10.330;2024-03-29T11:37:30;8.00;99.90
3912;DHT22;1971;51.778;10.330;2024-03-29T11:39:58;8.20;99.90
3912;DHT22;1971;51.778;10.330;2024-03-29T11:42:38;8.00;99.90
3912;DHT22;1971;51.778;10.330;2024-03-29T11:45:12;8.00;99.90
3912;DHT22;1971;51.778;10.330;2024-03-29T11:47:39;8.30;99.90
3912;DHT22;1971;51.778;10.330;2024-03-29T11:50:07;8.00;99.90
3912;DHT22;1971;51.778;10.330;2024-03-29T11:52:34;8.10;99.90
3912;DHT22;1971;51.778;10.330;2024-03-29T11:55:00;8.30;99.90
3912;DHT22;1971;51.778;10.330;2024-03-29T11:57:26;8.20;99.90
3912;DHT22;1971;51.778;10.330;2024-03-29T11:59:53;8.30;99.90
3912;DHT22;1971;51.778;10.330;2024-03-29T12:02:21;8.20;99.90
3912;DHT22;1971;51.778;10.330;2024-03-29T12:04:49;8.60;99.90
3912;DHT22;1971;51.778;10.330;2024-03-29T12:07:16;8.50;99.90
3912;DHT22;1971;51.778;10.330;2024-03-29T12:09:42;8.70;99.90
3912;DHT22;1971;51.778;10.330;2024-03-29T12:12:09;8.60;99.90
3912;DHT22;1971;51.778;10.330;2024-03-29T12:14:36;8.70;99.90
3912;DHT22;1971;51.778;10.330;2024-03-29T12:17:06;9.00;99.90
3912;DHT22;1971;51.778;10.330;2024-03-29T12:19:37;9.00;99.90
3912;DHT22;1971;51.778;10.330;2024-03-29T12:22:03;9.00;99.90
3912;DHT22;1971;51.778;10.330;2024-03-29T12:24:30;9.20;99.90
3912;DHT22;1971;51.778;10.330;2024-03-29T12:26:57;9.30;99.90
3912;DHT22;1971;51.778;10.330;2024-03-29T12:29:23;9.40;99.90
3912;DHT22;1971;51.778;10.330;2024-03-29T12:31:56;9.40;99.90
3912;DHT22;1971;51.778;10.330;2024-03-29T12:34:22;9.50;99.90
3912;DHT22;1971;51.778;10.330;2024-03-29T12:36:51;9.40;99.90
3912;DHT22;1971;51.778;10.330;2024-03-29T12:39:18;9.40;99.90
3912;DHT22;1971;51.778;10.330;2024-03-29T12:41:46;9.50;99.90
3912;DHT22;1971;51.778;10.330;2024-03-29T12:44:12;9.50;99.90
3912;DHT22;1971;51.778;10.330;2024-03-29T12:46:39;9.40;99.90
3912;DHT22;1971;51.778;10.330;2024-03-29T12:49:05;9.60;99.90
3912;DHT22;1971;51.778;10.330;2024-03-29T12:51:31;9.40;99.90
3912;DHT22;1971;51.778;10.330;2024-03-29T12:54:03;9.40;99.90
3912;DHT22;1971;51.778;10.330;2024-03-29T12:56:31;9.30;99.90
3912;DHT22;1971;51.778;10.330;2024-03-29T12:58:58;9.30;99.90
3912;DHT22;1971;51.778;10.330;2024-03-29T13:01:24;9.30;99.90
3912;DHT22;1971;51.778;10.330;2024-03-29T13:03:50;9.40;99.90
3912;DHT22;1971;51.778;10.330;2024-03-29T13:06:17;9.40;99.90
3912;DHT22;1971;51.778;10.330;2024-03-29T13:08:43;9.50;99.90
3912;DHT22;1971;51.778;10.330;2024-03-29T13:11:12;9.40;99.90
3912;DHT22;1971;51.778;10.330;2024-03-29T13:13:38;9.30;99.90
3912;DHT22;1971;51.778;10.330;2024-03-29T13:16:05;9.30;99.90
3912;DHT22;1971;51.778;10.330;2024-03-29T13:18:31;9.20;99.90
3912;DHT22;1971;51.778;10.330;2024-03-29T13:20:57;9.30;99.90
3912;DHT22;1971;51.778;10.330;2024-03-29T13:23:24;9.50;99.90
3912;DHT22;1971;51.778;10.330;2024-03-29T13:25:50;9.30;99.90
3912;DHT22;1971;51.778;10.330;2024-03-29T13:28:19;9.00;99.90
3912;DHT22;1971;51.778;10.330;2024-03-29T13:30:46;9.00;99.90
3912;DHT22;1971;51.778;10.330;2024-03-29T13:33:12;9.20;99.90
3912;DHT22;1971;51.778;10.330;2024-03-29T13:35:38;9.00;99.90
3912;DHT22;1971;51.778;10.330;2024-03-29T13:38:05;9.00;99.90
3912;DHT22;1971;51.778;10.330;2024-03-29T13:40:31;8.90;99.90
3912;DHT22;1971;51.778;10.330;2024-03-29T13:42:58;8.90;99.90
3912;DHT22;1971;51.778;10.330;2024-03-29T13:45:27;9.00;99.90
3912;DHT22;1971;51.778;10.330;2024-03-29T13:47:54;9.10;99.90
3912;DHT22;1971;51.778;10.330;2024-03-29T13:50:21;8.90;99.90
3912;DHT22;1971;51.778;10.330;2024-03-29T13:52:47;8.90;99.90
3912;DHT22;1971;51.778;10.330;2024-03-29T13:55:14;9.20;99.90
3912;DHT22;1971;51.778;10.330;2024-03-29T13:57:40;8.90;99.90
3912;DHT22;1971;51.778;10.330;2024-03-29T14:00:08;8.90;99.90
3912;DHT22;1971;51.778;10.330;2024-03-29T14:02:36;9.00;99.90
3912;DHT22;1971;51.778;10.330;2024-03-29T14:05:03;8.90;99.90
3912;DHT22;1971;51.778;10.330;2024-03-29T14:07:30;9.00;99.90
3912;DHT22;1971;51.778;10.330;2024-03-29T14:09:56;9.10;99.90
3912;DHT22;1971;51.778;10.330;2024-03-29T14:12:22;9.00;99.90
3912;DHT22;1971;51.778;10.330;2024-03-29T14:14:49;9.00;99.90
3912;DHT22;1971;51.778;10.330;2024-03-29T14:17:15;9.00;99.90
3912;DHT22;1971;51.778;10.330;2024-03-29T14:19:44;9.00;99.90
3912;DHT22;1971;51.778;10.330;2024-03-29T14:22:11;9.10;99.90
3912;DHT22;1971;51.778;10.330;2024-03-29T14:24:38;9.00;99.90
3912;DHT22;1971;51.778;10.330;2024-03-29T14:27:04;9.00;99.90
3912;DHT22;1971;51.778;10.330;2024-03-29T14:29:31;9.00;99.90
3912;DHT22;1971;51.778;10.330;2024-03-29T14:31:57;9.00;99.90
3912;DHT22;1971;51.778;10.330;2024-03-29T14:34:23;9.10;99.90
3912;DHT22;1971;51.778;10.330;2024-03-29T14:36:53;9.20;99.90
3912;DHT22;1971;51.778;10.330;2024-03-29T14:39:19;9.20;99.90
3912;DHT22;1971;51.778;10.330;2024-03-29T14:41:46;9.20;99.90
3912;DHT22;1971;51.778;10.330;2024-03-29T14:44:12;9.00;99.90
3912;DHT22;1971;51.778;10.330;2024-03-29T14:46:38;9.20;99.90
3912;DHT22;1971;51.778;10.330;2024-03-29T14:49:05;9.10;99.90
3912;DHT22;1971;51.778;10.330;2024-03-29T14:51:32;9.10;99.90
3912;DHT22;1971;51.778;10.330;2024-03-29T14:54:01;9.20;99.90
3912;DHT22;1971;51.778;10.330;2024-03-29T14:56:28;9.30;99.90
3912;DHT22;1971;51.778;10.330;2024-03-29T14:58:55;9.40;99.90
3912;DHT22;1971;51.778;10.330;2024-03-29T15:01:21;9.30;99.90
3912;DHT22;1971;51.778;10.330;2024-03-29T15:03:47;9.20;99.90
3912;DHT22;1971;51.778;10.330;2024-03-29T15:06:14;9.30;99.90
3912;DHT22;1971;51.778;10.330;2024-03-29T15:08:40;9.50;99.90
3912;DHT22;1971;51.778;10.330;2024-03-29T15:11:09;9.50;99.90
3912;DHT22;1971;51.778;10.330;2024-03-29T15:13:35;9.30;99.90
3912;DHT22;1971;51.778;10.330;2024-03-29T15:16:02;9.50;99.90
3912;DHT22;1971;51.778;10.330;2024-03-29T15:18:29;9.20;99.90
3912;DHT22;1971;51.778;10.330;2024-03-29T15:20:55;9.00;99.90
3912;DHT22;1971;51.778;10.330;2024-03-29T15:23:22;9.10;99.90
3912;DHT22;1971;51.778;10.330;2024-03-29T15:25:49;9.10;99.90
3912;DHT22;1971;51.778;10.330;2024-03-29T15:28:18;9.10;99.90
3912;DHT22;1971;51.778;10.330;2024-03-29T15:31:07;9.10;99.90
3912;DHT22;1971;51.778;10.330;2024-03-29T15:33:34;9.10;99.90
3912;DHT22;1971;51.778;10.330;2024-03-29T15:36:00;9.10;99.90
3912;DHT22;1971;51.778;10.330;2024-03-29T15:38:27;9.10;99.90
3912;DHT22;1971;51.778;10.330;2024-03-29T15:40:54;9.20;99.90
3912;DHT22;1971;51.778;10.330;2024-03-29T15:43:22;8.90;99.90
3912;DHT22;1971;51.778;10.330;2024-03-29T15:45:49;9.00;99.90
3912;DHT22;1971;51.778;10.330;2024-03-29T15:48:16;9.00;99.90
3912;DHT22;1971;51.778;10.330;2024-03-29T15:50:42;9.00;99.90
3912;DHT22;1971;51.778;10.330;2024-03-29T15:53:08;9.10;99.90
3912;DHT22;1971;51.778;10.330;2024-03-29T15:55:35;9.00;99.90
3912;DHT22;1971;51.778;10.330;2024-03-29T15:58:01;9.00;99.90
3912;DHT22;1971;51.778;10.330;2024-03-29T16:00:30;9.00;99.90
3912;DHT22;1971;51.778;10.330;2024-03-29T16:02:57;9.00;99.90